sensor_id;sensor_type;location;lat;lon;timestamp;P1;durP1;ratioP1;P2;durP2;ratioP2
39846;SDS011;25517;52.422;10.782;2023-07-24T00:00:12;2.60;;;1.73;;
39846;SDS011;25517;52.422;10.782;2023-07-24T00:02:38;1.98;;;1.75;;
39846;SDS011;25517;52.422;10.782;2023-07-24T00:05:03;5.00;;;1.67;;
39846;SDS011;25517;52.422;10.782;2023-07-24T00:07:29;2.05;;;1.42;;
39846;SDS011;25517;52.422;10.782;2023-07-24T00:09:54;2.20;;;1.75;;
39846;SDS011;25517;52.422;10.782;2023-07-24T00:12:20;2.15;;;1.92;;
39846;SDS011;25517;52.422;10.782;2023-07-24T00:14:46;2.25;;;1.55;;
39846;SDS011;25517;52.422;10.782;2023-07-24T00:17:12;2.05;;;1.65;;
39846;SDS011;25517;52.422;10.782;2023-07-24T00:19:37;2.63;;;1.98;;
39846;SDS011;25517;52.422;10.782;2023-07-24T00:22:03;2.38;;;1.63;;
39846;SDS011;25517;52.422;10.782;2023-07-24T00:24:29;2.00;;;1.75;;
39846;SDS011;25517;52.422;10.782;2023-07-24T00:26:56;3.05;;;1.30;;
39846;SDS011;25517;52.422;10.782;2023-07-24T00:29:21;4.50;;;2.28;;
39846;SDS011;25517;52.422;10.782;2023-07-24T00:31:47;2.58;;;1.70;;
39846;SDS011;25517;52.422;10.782;2023-07-24T00:34:13;3.72;;;1.98;;
39846;SDS011;25517;52.422;10.782;2023-07-24T00:36:38;2.22;;;1.77;;
39846;SDS011;25517;52.422;10.782;2023-07-24T00:39:04;2.35;;;1.85;;
39846;SDS011;25517;52.422;10.782;2023-07-24T00:41:29;3.95;;;1.80;;
39846;SDS011;25517;52.422;10.782;2023-07-24T00:43:55;3.47;;;2.13;;
39846;SDS011;25517;52.422;10.782;2023-07-24T00:46:20;4.15;;;2.00;;
39846;SDS011;25517;52.422;10.782;2023-07-24T00:48:46;2.80;;;2.00;;
39846;SDS011;25517;52.422;10.782;2023-07-24T00:51:12;3.85;;;2.10;;
39846;SDS011;25517;52.422;10.782;2023-07-24T00:53:38;3.75;;;2.08;;
39846;SDS011;25517;52.422;10.782;2023-07-24T00:56:04;2.72;;;1.75;;
39846;SDS011;25517;52.422;10.782;2023-07-24T00:58:30;6.15;;;2.97;;
39846;SDS011;25517;52.422;10.782;2023-07-24T01:00:56;3.10;;;2.42;;
39846;SDS011;25517;52.422;10.782;2023-07-24T01:03:22;5.30;;;2.30;;
39846;SDS011;25517;52.422;10.782;2023-07-24T01:05:56;4.47;;;2.33;;
39846;SDS011;25517;52.422;10.782;2023-07-24T01:08:22;2.55;;;1.85;;
39846;SDS011;25517;52.422;10.782;2023-07-24T01:10:48;3.38;;;2.45;;
39846;SDS011;25517;52.422;10.782;2023-07-24T01:13:19;4.72;;;2.50;;
39846;SDS011;25517;52.422;10.782;2023-07-24T01:15:56;4.38;;;2.25;;
39846;SDS011;25517;52.422;10.782;2023-07-24T01:18:28;3.53;;;2.28;;
39846;SDS011;25517;52.422;10.782;2023-07-24T01:20:55;2.65;;;2.10;;
39846;SDS011;25517;52.422;10.782;2023-07-24T01:23:25;2.13;;;1.90;;
39846;SDS011;25517;52.422;10.782;2023-07-24T01:26:11;2.50;;;2.00;;
39846;SDS011;25517;52.422;10.782;2023-07-24T01:28:37;2.30;;;2.05;;
39846;SDS011;25517;52.422;10.782;2023-07-24T01:31:04;2.92;;;2.05;;
39846;SDS011;25517;52.422;10.782;2023-07-24T01:33:30;1.98;;;1.80;;
39846;SDS011;25517;52.422;10.782;2023-07-24T01:35:59;2.58;;;1.80;;
39846;SDS011;25517;52.422;10.782;2023-07-24T01:38:25;2.50;;;1.98;;
39846;SDS011;25517;52.422;10.782;2023-07-24T01:40:53;3.17;;;2.13;;
39846;SDS011;25517;52.422;10.782;2023-07-24T01:43:19;2.22;;;2.03;;
39846;SDS011;25517;52.422;10.782;2023-07-24T01:45:45;2.35;;;1.73;;
39846;SDS011;25517;52.422;10.782;2023-07-24T01:48:10;3.65;;;1.88;;
39846;SDS011;25517;52.422;10.782;2023-07-24T01:50:36;3.00;;;1.95;;
39846;SDS011;25517;52.422;10.782;2023-07-24T01:53:01;4.10;;;1.67;;
39846;SDS011;25517;52.422;10.782;2023-07-24T01:55:27;2.15;;;1.80;;
39846;SDS011;25517;52.422;10.782;2023-07-24T01:57:52;3.20;;;1.80;;
39846;SDS011;25517;52.422;10.782;2023-07-24T02:00:18;2.72;;;1.83;;
39846;SDS011;25517;52.422;10.782;2023-07-24T02:02:43;3.35;;;1.85;;
39846;SDS011;25517;52.422;10.782;2023-07-24T02:05:09;2.60;;;1.90;;
39846;SDS011;25517;52.422;10.782;2023-07-24T02:07:34;3.60;;;1.50;;
39846;SDS011;25517;52.422;10.782;2023-07-24T02:10:00;6.35;;;2.45;;
39846;SDS011;25517;52.422;10.782;2023-07-24T02:12:26;4.78;;;1.35;;
39846;SDS011;25517;52.422;10.782;2023-07-24T02:14:51;1.95;;;1.75;;
39846;SDS011;25517;52.422;10.782;2023-07-24T02:17:18;2.70;;;1.50;;
39846;SDS011;25517;52.422;10.782;2023-07-24T02:19:44;3.35;;;1.60;;
39846;SDS011;25517;52.422;10.782;2023-07-24T02:22:10;2.60;;;1.90;;
39846;SDS011;25517;52.422;10.782;2023-07-24T02:24:35;2.80;;;1.88;;
39846;SDS011;25517;52.422;10.782;2023-07-24T02:27:01;1.65;;;1.55;;
39846;SDS011;25517;52.422;10.782;2023-07-24T02:29:27;1.80;;;1.35;;
39846;SDS011;25517;52.422;10.782;2023-07-24T02:31:53;1.50;;;1.40;;
39846;SDS011;25517;52.422;10.782;2023-07-24T02:34:19;3.72;;;1.98;;
39846;SDS011;25517;52.422;10.782;2023-07-24T02:36:49;2.25;;;1.88;;
39846;SDS011;25517;52.422;10.782;2023-07-24T02:39:15;2.78;;;1.80;;
39846;SDS011;25517;52.422;10.782;2023-07-24T02:41:40;2.65;;;2.40;;
39846;SDS011;25517;52.422;10.782;2023-07-24T02:44:06;3.05;;;1.85;;
39846;SDS011;25517;52.422;10.782;2023-07-24T02:46:31;2.17;;;1.98;;
39846;SDS011;25517;52.422;10.782;2023-07-24T02:48:57;2.63;;;2.20;;
39846;SDS011;25517;52.422;10.782;2023-07-24T02:51:22;3.60;;;1.98;;
39846;SDS011;25517;52.422;10.782;2023-07-24T02:53:48;2.40;;;1.80;;
39846;SDS011;25517;52.422;10.782;2023-07-24T02:56:13;2.80;;;1.90;;
39846;SDS011;25517;52.422;10.782;2023-07-24T02:58:39;2.13;;;1.92;;
39846;SDS011;25517;52.422;10.782;2023-07-24T03:01:04;2.40;;;2.13;;
39846;SDS011;25517;52.422;10.782;2023-07-24T03:03:31;4.50;;;2.30;;
39846;SDS011;25517;52.422;10.782;2023-07-24T03:05:57;2.38;;;1.90;;
39846;SDS011;25517;52.422;10.782;2023-07-24T03:08:23;3.08;;;2.13;;
39846;SDS011;25517;52.422;10.782;2023-07-24T03:10:49;2.05;;;1.85;;
39846;SDS011;25517;52.422;10.782;2023-07-24T03:13:14;2.05;;;1.83;;
39846;SDS011;25517;52.422;10.782;2023-07-24T03:15:40;3.13;;;2.50;;
39846;SDS011;25517;52.422;10.782;2023-07-24T03:18:05;6.30;;;2.33;;
39846;SDS011;25517;52.422;10.782;2023-07-24T03:20:31;2.95;;;2.38;;
39846;SDS011;25517;52.422;10.782;2023-07-24T03:22:56;2.42;;;2.00;;
39846;SDS011;25517;52.422;10.782;2023-07-24T03:25:22;5.53;;;2.15;;
39846;SDS011;25517;52.422;10.782;2023-07-24T03:27:47;2.00;;;1.83;;
39846;SDS011;25517;52.422;10.782;2023-07-24T03:30:13;2.20;;;2.00;;
39846;SDS011;25517;52.422;10.782;2023-07-24T03:32:38;1.60;;;1.50;;
39846;SDS011;25517;52.422;10.782;2023-07-24T03:35:04;4.63;;;2.30;;
39846;SDS011;25517;52.422;10.782;2023-07-24T03:37:31;4.65;;;2.03;;
39846;SDS011;25517;52.422;10.782;2023-07-24T03:39:58;2.30;;;1.90;;
39846;SDS011;25517;52.422;10.782;2023-07-24T03:42:28;2.55;;;1.77;;
39846;SDS011;25517;52.422;10.782;2023-07-24T03:44:57;4.60;;;2.30;;
39846;SDS011;25517;52.422;10.782;2023-07-24T03:47:23;3.88;;;2.22;;
39846;SDS011;25517;52.422;10.782;2023-07-24T03:49:49;2.15;;;1.95;;
39846;SDS011;25517;52.422;10.782;2023-07-24T03:52:15;2.85;;;2.55;;
39846;SDS011;25517;52.422;10.782;2023-07-24T03:54:41;3.20;;;1.95;;
39846;SDS011;25517;52.422;10.782;2023-07-24T03:57:06;2.90;;;2.42;;
39846;SDS011;25517;52.422;10.782;2023-07-24T03:59:32;3.78;;;2.33;;
39846;SDS011;25517;52.422;10.782;2023-07-24T04:01:57;3.83;;;3.05;;
39846;SDS011;25517;52.422;10.782;2023-07-24T04:04:23;3.75;;;2.53;;
39846;SDS011;25517;52.422;10.782;2023-07-24T04:06:49;7.25;;;2.70;;
39846;SDS011;25517;52.422;10.782;2023-07-24T04:09:15;7.38;;;3.13;;
39846;SDS011;25517;52.422;10.782;2023-07-24T04:11:41;3.08;;;2.72;;
39846;SDS011;25517;52.422;10.782;2023-07-24T04:14:09;3.70;;;2.90;;
39846;SDS011;25517;52.422;10.782;2023-07-24T04:16:35;3.75;;;2.47;;
39846;SDS011;25517;52.422;10.782;2023-07-24T04:19:01;3.40;;;2.53;;
39846;SDS011;25517;52.422;10.782;2023-07-24T04:21:27;5.95;;;3.40;;
39846;SDS011;25517;52.422;10.782;2023-07-24T04:23:52;3.10;;;2.72;;
39846;SDS011;25517;52.422;10.782;2023-07-24T04:26:18;3.85;;;2.15;;
39846;SDS011;25517;52.422;10.782;2023-07-24T04:28:43;4.63;;;2.70;;
39846;SDS011;25517;52.422;10.782;2023-07-24T04:31:09;2.80;;;2.25;;
39846;SDS011;25517;52.422;10.782;2023-07-24T04:33:34;3.10;;;2.40;;
39846;SDS011;25517;52.422;10.782;2023-07-24T04:36:00;3.67;;;2.47;;
39846;SDS011;25517;52.422;10.782;2023-07-24T04:38:25;2.63;;;2.30;;
39846;SDS011;25517;52.422;10.782;2023-07-24T04:40:51;2.53;;;2.13;;
39846;SDS011;25517;52.422;10.782;2023-07-24T04:43:16;4.40;;;2.45;;
39846;SDS011;25517;52.422;10.782;2023-07-24T04:45:42;2.88;;;1.85;;
39846;SDS011;25517;52.422;10.782;2023-07-24T04:48:08;3.88;;;2.38;;
39846;SDS011;25517;52.422;10.782;2023-07-24T04:50:33;2.50;;;2.30;;
39846;SDS011;25517;52.422;10.782;2023-07-24T04:52:59;3.55;;;2.50;;
39846;SDS011;25517;52.422;10.782;2023-07-24T04:55:24;2.88;;;2.53;;
39846;SDS011;25517;52.422;10.782;2023-07-24T04:57:50;2.70;;;2.20;;
39846;SDS011;25517;52.422;10.782;2023-07-24T05:00:16;4.95;;;2.80;;
39846;SDS011;25517;52.422;10.782;2023-07-24T05:02:41;4.10;;;2.83;;
39846;SDS011;25517;52.422;10.782;2023-07-24T05:05:07;5.38;;;2.28;;
39846;SDS011;25517;52.422;10.782;2023-07-24T05:07:33;3.08;;;2.00;;
39846;SDS011;25517;52.422;10.782;2023-07-24T05:09:59;3.42;;;2.65;;
39846;SDS011;25517;52.422;10.782;2023-07-24T05:12:24;3.75;;;2.60;;
39846;SDS011;25517;52.422;10.782;2023-07-24T05:14:50;2.45;;;2.08;;
39846;SDS011;25517;52.422;10.782;2023-07-24T05:17:15;5.82;;;1.98;;
39846;SDS011;25517;52.422;10.782;2023-07-24T05:19:41;2.80;;;2.40;;
39846;SDS011;25517;52.422;10.782;2023-07-24T05:22:06;2.85;;;2.30;;
39846;SDS011;25517;52.422;10.782;2023-07-24T05:24:32;2.28;;;1.90;;
39846;SDS011;25517;52.422;10.782;2023-07-24T05:26:58;3.30;;;2.00;;
39846;SDS011;25517;52.422;10.782;2023-07-24T05:29:23;2.72;;;2.33;;
39846;SDS011;25517;52.422;10.782;2023-07-24T05:31:49;2.28;;;1.83;;
39846;SDS011;25517;52.422;10.782;2023-07-24T05:34:14;2.78;;;1.98;;
39846;SDS011;25517;52.422;10.782;2023-07-24T05:36:40;3.88;;;2.30;;
39846;SDS011;25517;52.422;10.782;2023-07-24T05:39:06;2.55;;;2.22;;
39846;SDS011;25517;52.422;10.782;2023-07-24T05:41:32;5.47;;;2.50;;
39846;SDS011;25517;52.422;10.782;2023-07-24T05:43:57;5.50;;;2.75;;
39846;SDS011;25517;52.422;10.782;2023-07-24T05:46:23;3.47;;;2.50;;
39846;SDS011;25517;52.422;10.782;2023-07-24T05:48:48;5.30;;;2.50;;
39846;SDS011;25517;52.422;10.782;2023-07-24T05:51:14;3.70;;;2.10;;
39846;SDS011;25517;52.422;10.782;2023-07-24T05:53:39;5.85;;;2.08;;
39846;SDS011;25517;52.422;10.782;2023-07-24T05:56:05;6.25;;;2.60;;
39846;SDS011;25517;52.422;10.782;2023-07-24T05:58:30;4.93;;;2.40;;
39846;SDS011;25517;52.422;10.782;2023-07-24T06:00:56;3.90;;;2.35;;
39846;SDS011;25517;52.422;10.782;2023-07-24T06:03:22;4.03;;;2.30;;
39846;SDS011;25517;52.422;10.782;2023-07-24T06:05:54;2.05;;;1.83;;
39846;SDS011;25517;52.422;10.782;2023-07-24T06:08:20;4.20;;;2.33;;
39846;SDS011;25517;52.422;10.782;2023-07-24T06:10:47;2.38;;;2.17;;
39846;SDS011;25517;52.422;10.782;2023-07-24T06:13:14;2.67;;;2.03;;
39846;SDS011;25517;52.422;10.782;2023-07-24T06:15:42;3.45;;;2.28;;
39846;SDS011;25517;52.422;10.782;2023-07-24T06:18:08;4.25;;;2.08;;
39846;SDS011;25517;52.422;10.782;2023-07-24T06:20:34;2.22;;;2.03;;
39846;SDS011;25517;52.422;10.782;2023-07-24T06:22:59;3.60;;;2.38;;
39846;SDS011;25517;52.422;10.782;2023-07-24T06:25:24;2.50;;;2.30;;
39846;SDS011;25517;52.422;10.782;2023-07-24T06:27:51;3.92;;;2.42;;
39846;SDS011;25517;52.422;10.782;2023-07-24T06:30:16;2.95;;;2.13;;
39846;SDS011;25517;52.422;10.782;2023-07-24T06:32:42;3.67;;;2.13;;
39846;SDS011;25517;52.422;10.782;2023-07-24T06:35:08;2.67;;;2.25;;
39846;SDS011;25517;52.422;10.782;2023-07-24T06:37:34;3.83;;;2.28;;
39846;SDS011;25517;52.422;10.782;2023-07-24T06:39:59;2.75;;;2.40;;
39846;SDS011;25517;52.422;10.782;2023-07-24T06:42:25;3.95;;;2.63;;
39846;SDS011;25517;52.422;10.782;2023-07-24T06:44:50;3.20;;;2.25;;
39846;SDS011;25517;52.422;10.782;2023-07-24T06:47:16;3.70;;;2.58;;
39846;SDS011;25517;52.422;10.782;2023-07-24T06:49:41;4.00;;;2.83;;
39846;SDS011;25517;52.422;10.782;2023-07-24T06:52:07;2.50;;;2.30;;
39846;SDS011;25517;52.422;10.782;2023-07-24T06:54:32;7.22;;;3.20;;
39846;SDS011;25517;52.422;10.782;2023-07-24T06:56:58;5.72;;;2.95;;
39846;SDS011;25517;52.422;10.782;2023-07-24T06:59:23;4.47;;;2.75;;
39846;SDS011;25517;52.422;10.782;2023-07-24T07:01:49;3.38;;;2.60;;
39846;SDS011;25517;52.422;10.782;2023-07-24T07:04:14;4.22;;;2.83;;
39846;SDS011;25517;52.422;10.782;2023-07-24T07:06:41;2.70;;;2.38;;
39846;SDS011;25517;52.422;10.782;2023-07-24T07:09:06;3.72;;;2.70;;
39846;SDS011;25517;52.422;10.782;2023-07-24T07:11:32;3.10;;;2.78;;
39846;SDS011;25517;52.422;10.782;2023-07-24T07:13:57;3.17;;;2.30;;
39846;SDS011;25517;52.422;10.782;2023-07-24T07:16:23;4.90;;;2.58;;
39846;SDS011;25517;52.422;10.782;2023-07-24T07:18:48;3.22;;;2.47;;
39846;SDS011;25517;52.422;10.782;2023-07-24T07:21:14;2.90;;;2.45;;
39846;SDS011;25517;52.422;10.782;2023-07-24T07:23:40;4.82;;;2.70;;
39846;SDS011;25517;52.422;10.782;2023-07-24T07:26:05;3.85;;;2.63;;
39846;SDS011;25517;52.422;10.782;2023-07-24T07:28:31;3.60;;;2.80;;
39846;SDS011;25517;52.422;10.782;2023-07-24T07:30:56;4.07;;;2.85;;
39846;SDS011;25517;52.422;10.782;2023-07-24T07:33:22;2.65;;;2.38;;
39846;SDS011;25517;52.422;10.782;2023-07-24T07:35:48;3.67;;;3.15;;
39846;SDS011;25517;52.422;10.782;2023-07-24T07:38:14;6.60;;;3.40;;
39846;SDS011;25517;52.422;10.782;2023-07-24T07:40:40;9.00;;;3.30;;
39846;SDS011;25517;52.422;10.782;2023-07-24T07:43:05;3.38;;;2.90;;
39846;SDS011;25517;52.422;10.782;2023-07-24T07:45:31;2.92;;;2.47;;
39846;SDS011;25517;52.422;10.782;2023-07-24T07:47:56;3.38;;;2.83;;
39846;SDS011;25517;52.422;10.782;2023-07-24T07:50:22;6.10;;;2.83;;
39846;SDS011;25517;52.422;10.782;2023-07-24T07:52:51;3.97;;;3.03;;
39846;SDS011;25517;52.422;10.782;2023-07-24T07:55:17;4.35;;;2.95;;
39846;SDS011;25517;52.422;10.782;2023-07-24T07:57:44;5.55;;;3.17;;
39846;SDS011;25517;52.422;10.782;2023-07-24T08:00:09;3.67;;;2.88;;
39846;SDS011;25517;52.422;10.782;2023-07-24T08:02:36;2.85;;;2.42;;
39846;SDS011;25517;52.422;10.782;2023-07-24T08:05:05;5.18;;;2.88;;
39846;SDS011;25517;52.422;10.782;2023-07-24T08:07:34;4.80;;;3.50;;
39846;SDS011;25517;52.422;10.782;2023-07-24T08:09:59;4.75;;;2.50;;
39846;SDS011;25517;52.422;10.782;2023-07-24T08:12:25;3.00;;;2.55;;
39846;SDS011;25517;52.422;10.782;2023-07-24T08:14:51;3.75;;;2.95;;
39846;SDS011;25517;52.422;10.782;2023-07-24T08:17:16;3.67;;;3.08;;
39846;SDS011;25517;52.422;10.782;2023-07-24T08:19:42;3.60;;;2.65;;
39846;SDS011;25517;52.422;10.782;2023-07-24T08:22:07;3.33;;;2.50;;
39846;SDS011;25517;52.422;10.782;2023-07-24T08:24:33;3.90;;;2.85;;
39846;SDS011;25517;52.422;10.782;2023-07-24T08:27:00;4.72;;;3.22;;
39846;SDS011;25517;52.422;10.782;2023-07-24T08:29:26;4.50;;;3.53;;
39846;SDS011;25517;52.422;10.782;2023-07-24T08:31:51;7.13;;;3.25;;
39846;SDS011;25517;52.422;10.782;2023-07-24T08:34:17;5.32;;;3.10;;
39846;SDS011;25517;52.422;10.782;2023-07-24T08:36:42;6.20;;;2.92;;
39846;SDS011;25517;52.422;10.782;2023-07-24T08:39:08;3.80;;;2.60;;
39846;SDS011;25517;52.422;10.782;2023-07-24T08:41:33;3.15;;;2.85;;
39846;SDS011;25517;52.422;10.782;2023-07-24T08:44:00;6.03;;;3.60;;
39846;SDS011;25517;52.422;10.782;2023-07-24T08:46:27;6.00;;;3.50;;
39846;SDS011;25517;52.422;10.782;2023-07-24T08:48:52;3.97;;;2.88;;
39846;SDS011;25517;52.422;10.782;2023-07-24T08:51:19;3.33;;;2.83;;
39846;SDS011;25517;52.422;10.782;2023-07-24T08:53:46;5.78;;;3.40;;
39846;SDS011;25517;52.422;10.782;2023-07-24T08:56:13;9.68;;;4.07;;
39846;SDS011;25517;52.422;10.782;2023-07-24T08:58:39;8.27;;;3.85;;
39846;SDS011;25517;52.422;10.782;2023-07-24T09:01:05;5.95;;;3.38;;
39846;SDS011;25517;52.422;10.782;2023-07-24T09:03:32;5.13;;;3.58;;
39846;SDS011;25517;52.422;10.782;2023-07-24T09:05:58;4.95;;;3.55;;
39846;SDS011;25517;52.422;10.782;2023-07-24T09:08:32;5.18;;;3.45;;
39846;SDS011;25517;52.422;10.782;2023-07-24T09:11:00;6.10;;;3.92;;
39846;SDS011;25517;52.422;10.782;2023-07-24T09:13:27;5.03;;;3.80;;
39846;SDS011;25517;52.422;10.782;2023-07-24T09:15:53;6.70;;;3.45;;
39846;SDS011;25517;52.422;10.782;2023-07-24T09:18:20;5.45;;;3.60;;
39846;SDS011;25517;52.422;10.782;2023-07-24T09:20:45;7.70;;;4.18;;
39846;SDS011;25517;52.422;10.782;2023-07-24T09:23:12;6.25;;;3.67;;
39846;SDS011;25517;52.422;10.782;2023-07-24T09:25:39;5.63;;;3.83;;
39846;SDS011;25517;52.422;10.782;2023-07-24T09:30:39;10.65;;;4.78;;
39846;SDS011;25517;52.422;10.782;2023-07-24T09:33:06;3.63;;;3.33;;
39846;SDS011;25517;52.422;10.782;2023-07-24T09:35:32;4.30;;;3.30;;
39846;SDS011;25517;52.422;10.782;2023-07-24T09:38:05;3.95;;;3.15;;
39846;SDS011;25517;52.422;10.782;2023-07-24T09:40:45;4.65;;;3.30;;
39846;SDS011;25517;52.422;10.782;2023-07-24T09:43:18;5.60;;;2.90;;
39846;SDS011;25517;52.422;10.782;2023-07-24T09:45:49;6.63;;;3.67;;
39846;SDS011;25517;52.422;10.782;2023-07-24T09:48:16;4.55;;;3.00;;
39846;SDS011;25517;52.422;10.782;2023-07-24T09:50:44;3.88;;;3.00;;
39846;SDS011;25517;52.422;10.782;2023-07-24T09:53:18;4.10;;;3.03;;
39846;SDS011;25517;52.422;10.782;2023-07-24T09:55:49;4.78;;;2.85;;
39846;SDS011;25517;52.422;10.782;2023-07-24T09:58:24;4.70;;;2.60;;
39846;SDS011;25517;52.422;10.782;2023-07-24T10:00:51;3.85;;;2.60;;
39846;SDS011;25517;52.422;10.782;2023-07-24T10:03:17;2.97;;;2.55;;
39846;SDS011;25517;52.422;10.782;2023-07-24T10:05:46;3.50;;;2.50;;
39846;SDS011;25517;52.422;10.782;2023-07-24T10:08:12;2.97;;;2.70;;
39846;SDS011;25517;52.422;10.782;2023-07-24T10:10:40;3.80;;;2.30;;
39846;SDS011;25517;52.422;10.782;2023-07-24T10:13:06;3.42;;;2.53;;
39846;SDS011;25517;52.422;10.782;2023-07-24T10:15:35;2.73;;;2.40;;
39846;SDS011;25517;52.422;10.782;2023-07-24T10:18:03;2.47;;;2.28;;
39846;SDS011;25517;52.422;10.782;2023-07-24T10:20:33;3.22;;;2.30;;
39846;SDS011;25517;52.422;10.782;2023-07-24T10:23:10;5.75;;;2.42;;
39846;SDS011;25517;52.422;10.782;2023-07-24T10:25:37;4.75;;;2.55;;
39846;SDS011;25517;52.422;10.782;2023-07-24T10:28:08;4.30;;;2.40;;
39846;SDS011;25517;52.422;10.782;2023-07-24T10:30:41;3.30;;;2.38;;
39846;SDS011;25517;52.422;10.782;2023-07-24T10:33:08;4.20;;;2.42;;
39846;SDS011;25517;52.422;10.782;2023-07-24T10:35:45;3.10;;;2.53;;
39846;SDS011;25517;52.422;10.782;2023-07-24T10:38:13;2.80;;;2.60;;
39846;SDS011;25517;52.422;10.782;2023-07-24T10:40:40;3.42;;;2.80;;
39846;SDS011;25517;52.422;10.782;2023-07-24T10:43:07;3.00;;;2.40;;
39846;SDS011;25517;52.422;10.782;2023-07-24T10:45:51;4.22;;;2.95;;
39846;SDS011;25517;52.422;10.782;2023-07-24T10:48:18;2.80;;;2.38;;
39846;SDS011;25517;52.422;10.782;2023-07-24T10:50:45;3.08;;;2.60;;
39846;SDS011;25517;52.422;10.782;2023-07-24T10:53:15;4.72;;;2.35;;
39846;SDS011;25517;52.422;10.782;2023-07-24T10:55:42;3.05;;;2.75;;
39846;SDS011;25517;52.422;10.782;2023-07-24T10:58:08;2.85;;;2.50;;
39846;SDS011;25517;52.422;10.782;2023-07-24T11:00:34;3.20;;;2.90;;
39846;SDS011;25517;52.422;10.782;2023-07-24T11:03:00;2.67;;;2.45;;
39846;SDS011;25517;52.422;10.782;2023-07-24T11:05:26;3.47;;;2.25;;
39846;SDS011;25517;52.422;10.782;2023-07-24T11:07:52;2.53;;;2.20;;
39846;SDS011;25517;52.422;10.782;2023-07-24T11:10:18;4.05;;;2.40;;
39846;SDS011;25517;52.422;10.782;2023-07-24T11:12:45;3.80;;;2.50;;
39846;SDS011;25517;52.422;10.782;2023-07-24T11:15:11;3.30;;;2.40;;
39846;SDS011;25517;52.422;10.782;2023-07-24T11:17:38;4.05;;;2.33;;
39846;SDS011;25517;52.422;10.782;2023-07-24T11:20:11;4.18;;;2.78;;
39846;SDS011;25517;52.422;10.782;2023-07-24T11:22:38;3.28;;;2.65;;
39846;SDS011;25517;52.422;10.782;2023-07-24T11:25:05;3.03;;;2.50;;
39846;SDS011;25517;52.422;10.782;2023-07-24T11:27:31;3.00;;;2.72;;
39846;SDS011;25517;52.422;10.782;2023-07-24T11:29:57;2.88;;;2.60;;
39846;SDS011;25517;52.422;10.782;2023-07-24T11:32:23;3.63;;;3.33;;
39846;SDS011;25517;52.422;10.782;2023-07-24T11:34:49;3.97;;;2.70;;
39846;SDS011;25517;52.422;10.782;2023-07-24T11:37:16;3.85;;;2.35;;
39846;SDS011;25517;52.422;10.782;2023-07-24T11:39:43;2.85;;;2.58;;
39846;SDS011;25517;52.422;10.782;2023-07-24T11:42:08;4.45;;;2.53;;
39846;SDS011;25517;52.422;10.782;2023-07-24T11:44:34;3.90;;;2.50;;
39846;SDS011;25517;52.422;10.782;2023-07-24T11:47:00;3.75;;;2.40;;
39846;SDS011;25517;52.422;10.782;2023-07-24T11:49:29;4.78;;;2.13;;
39846;SDS011;25517;52.422;10.782;2023-07-24T11:52:00;2.70;;;2.45;;
39846;SDS011;25517;52.422;10.782;2023-07-24T11:54:27;2.55;;;2.10;;
39846;SDS011;25517;52.422;10.782;2023-07-24T11:56:53;4.72;;;2.50;;
39846;SDS011;25517;52.422;10.782;2023-07-24T11:59:18;2.40;;;2.20;;
39846;SDS011;25517;52.422;10.782;2023-07-24T12:01:47;2.95;;;2.20;;
39846;SDS011;25517;52.422;10.782;2023-07-24T12:04:13;3.75;;;2.22;;
39846;SDS011;25517;52.422;10.782;2023-07-24T12:06:40;2.58;;;2.17;;
39846;SDS011;25517;52.422;10.782;2023-07-24T12:09:06;3.33;;;2.50;;
39846;SDS011;25517;52.422;10.782;2023-07-24T12:11:44;4.47;;;2.55;;
39846;SDS011;25517;52.422;10.782;2023-07-24T12:14:11;4.05;;;2.72;;
39846;SDS011;25517;52.422;10.782;2023-07-24T12:16:38;3.70;;;2.75;;
39846;SDS011;25517;52.422;10.782;2023-07-24T12:19:03;5.97;;;2.72;;
39846;SDS011;25517;52.422;10.782;2023-07-24T12:21:29;3.40;;;2.72;;
39846;SDS011;25517;52.422;10.782;2023-07-24T12:23:55;4.30;;;2.55;;
39846;SDS011;25517;52.422;10.782;2023-07-24T12:26:20;3.97;;;2.90;;
39846;SDS011;25517;52.422;10.782;2023-07-24T12:28:46;7.25;;;3.03;;
39846;SDS011;25517;52.422;10.782;2023-07-24T12:31:11;8.40;;;3.40;;
39846;SDS011;25517;52.422;10.782;2023-07-24T12:33:36;7.00;;;3.47;;
39846;SDS011;25517;52.422;10.782;2023-07-24T12:36:02;5.85;;;3.47;;
39846;SDS011;25517;52.422;10.782;2023-07-24T12:38:28;4.53;;;3.00;;
39846;SDS011;25517;52.422;10.782;2023-07-24T12:40:54;4.38;;;3.13;;
39846;SDS011;25517;52.422;10.782;2023-07-24T12:43:20;5.22;;;3.47;;
39846;SDS011;25517;52.422;10.782;2023-07-24T12:45:45;3.88;;;2.90;;
39846;SDS011;25517;52.422;10.782;2023-07-24T12:48:11;6.82;;;3.45;;
39846;SDS011;25517;52.422;10.782;2023-07-24T12:50:36;3.30;;;3.00;;
39846;SDS011;25517;52.422;10.782;2023-07-24T12:53:02;3.92;;;3.40;;
39846;SDS011;25517;52.422;10.782;2023-07-24T12:55:27;3.92;;;3.53;;
39846;SDS011;25517;52.422;10.782;2023-07-24T12:57:54;3.28;;;2.70;;
39846;SDS011;25517;52.422;10.782;2023-07-24T13:00:21;3.47;;;3.13;;
39846;SDS011;25517;52.422;10.782;2023-07-24T13:02:46;3.53;;;3.05;;
39846;SDS011;25517;52.422;10.782;2023-07-24T13:05:12;3.33;;;2.97;;
39846;SDS011;25517;52.422;10.782;2023-07-24T13:07:37;4.78;;;3.45;;
39846;SDS011;25517;52.422;10.782;2023-07-24T13:10:03;3.78;;;3.40;;
39846;SDS011;25517;52.422;10.782;2023-07-24T13:12:29;4.65;;;3.88;;
39846;SDS011;25517;52.422;10.782;2023-07-24T13:14:54;5.07;;;3.25;;
39846;SDS011;25517;52.422;10.782;2023-07-24T13:17:20;3.70;;;3.30;;
39846;SDS011;25517;52.422;10.782;2023-07-24T13:19:46;4.15;;;3.40;;
39846;SDS011;25517;52.422;10.782;2023-07-24T13:22:11;3.80;;;3.03;;
39846;SDS011;25517;52.422;10.782;2023-07-24T13:24:37;3.97;;;3.10;;
39846;SDS011;25517;52.422;10.782;2023-07-24T13:27:03;4.45;;;3.30;;
39846;SDS011;25517;52.422;10.782;2023-07-24T13:29:29;4.18;;;3.38;;
39846;SDS011;25517;52.422;10.782;2023-07-24T13:31:55;4.32;;;3.75;;
39846;SDS011;25517;52.422;10.782;2023-07-24T13:34:21;4.13;;;3.50;;
39846;SDS011;25517;52.422;10.782;2023-07-24T13:36:48;5.72;;;3.70;;
39846;SDS011;25517;52.422;10.782;2023-07-24T13:39:14;5.28;;;4.50;;
39846;SDS011;25517;52.422;10.782;2023-07-24T13:41:39;4.88;;;4.07;;
39846;SDS011;25517;52.422;10.782;2023-07-24T13:44:05;5.60;;;4.97;;
39846;SDS011;25517;52.422;10.782;2023-07-24T13:46:30;5.80;;;5.20;;
39846;SDS011;25517;52.422;10.782;2023-07-24T13:48:56;5.55;;;4.97;;
39846;SDS011;25517;52.422;10.782;2023-07-24T13:51:21;4.82;;;4.20;;
39846;SDS011;25517;52.422;10.782;2023-07-24T13:53:47;5.95;;;4.80;;
39846;SDS011;25517;52.422;10.782;2023-07-24T13:56:14;6.78;;;4.90;;
39846;SDS011;25517;52.422;10.782;2023-07-24T13:58:39;5.82;;;5.05;;
39846;SDS011;25517;52.422;10.782;2023-07-24T14:01:05;5.53;;;5.00;;
39846;SDS011;25517;52.422;10.782;2023-07-24T14:03:32;5.15;;;4.65;;
39846;SDS011;25517;52.422;10.782;2023-07-24T14:05:58;5.78;;;4.80;;
39846;SDS011;25517;52.422;10.782;2023-07-24T14:08:24;5.45;;;4.95;;
39846;SDS011;25517;52.422;10.782;2023-07-24T14:10:51;6.65;;;5.05;;
39846;SDS011;25517;52.422;10.782;2023-07-24T14:13:16;6.45;;;5.15;;
39846;SDS011;25517;52.422;10.782;2023-07-24T14:15:42;5.47;;;4.40;;
39846;SDS011;25517;52.422;10.782;2023-07-24T14:18:08;6.95;;;5.13;;
39846;SDS011;25517;52.422;10.782;2023-07-24T14:20:33;6.13;;;4.40;;
39846;SDS011;25517;52.422;10.782;2023-07-24T14:22:59;6.50;;;5.03;;
39846;SDS011;25517;52.422;10.782;2023-07-24T14:25:24;7.25;;;5.35;;
39846;SDS011;25517;52.422;10.782;2023-07-24T14:27:50;5.32;;;4.82;;
39846;SDS011;25517;52.422;10.782;2023-07-24T14:30:16;6.80;;;4.40;;